createdAt,value
2018-09-12T00:01:20.525Z,1.83
2018-09-12T00:03:48.692Z,2.87
2018-09-12T00:06:17.743Z,5.03
2018-09-12T00:08:45.917Z,1.53
2018-09-12T00:11:14.125Z,3.70
2018-09-12T00:13:42.324Z,3.47
2018-09-12T00:16:10.477Z,1.70
2018-09-12T00:18:38.705Z,2.20
2018-09-12T00:21:07.192Z,2.10
2018-09-12T00:23:35.356Z,2.10
2018-09-12T00:26:03.550Z,1.67
2018-09-12T00:28:31.783Z,2.20
2018-09-12T00:30:59.966Z,2.50
2018-09-12T00:33:28.147Z,2.47
2018-09-12T00:35:56.364Z,1.50
2018-09-12T00:38:24.516Z,1.67
2018-09-12T00:40:52.762Z,2.10
2018-09-12T00:43:20.928Z,2.30
2018-09-12T00:45:49.169Z,2.80
2018-09-12T00:48:17.322Z,1.60
2018-09-12T00:50:45.543Z,3.47
2018-09-12T00:53:13.997Z,2.70
2018-09-12T00:55:42.184Z,3.30
2018-09-12T00:58:10.348Z,2.17
2018-09-12T01:00:38.525Z,1.97
2018-09-12T01:03:06.757Z,2.37
2018-09-12T01:05:39.053Z,1.90
2018-09-12T01:08:07.236Z,1.70
2018-09-12T01:10:35.423Z,2.10
2018-09-12T01:13:03.628Z,2.13
2018-09-12T01:15:31.845Z,4.50
2018-09-12T01:18:00.072Z,1.60
2018-09-12T01:20:28.311Z,3.90
2018-09-12T01:22:56.493Z,2.23
2018-09-12T01:25:24.758Z,3.47
2018-09-12T01:27:58.123Z,3.00
2018-09-12T01:30:26.611Z,2.67
2018-09-12T01:32:56.418Z,2.53
2018-09-12T01:35:24.599Z,1.60
2018-09-12T01:37:52.731Z,1.37
2018-09-12T01:40:28.484Z,1.70
2018-09-12T01:42:56.686Z,2.40
2018-09-12T01:45:24.906Z,2.03
2018-09-12T01:47:53.110Z,2.30
2018-09-12T01:50:21.266Z,1.83
2018-09-12T01:52:49.521Z,1.80
2018-09-12T01:55:17.692Z,1.80
2018-09-12T01:57:45.940Z,3.07
2018-09-12T02:00:16.584Z,2.27
2018-09-12T02:02:45.451Z,1.60
2018-09-12T02:05:13.713Z,2.00
2018-09-12T02:07:41.916Z,1.80
2018-09-12T02:10:11.643Z,2.10
2018-09-12T02:12:39.890Z,2.30
2018-09-12T02:15:08.739Z,1.30
2018-09-12T02:17:36.940Z,1.70
2018-09-12T02:20:05.443Z,2.07
2018-09-12T02:22:34.320Z,1.80
2018-09-12T02:25:02.527Z,1.70
2018-09-12T02:27:30.740Z,2.40
2018-09-12T02:29:58.993Z,1.53
2018-09-12T02:32:33.699Z,2.40
2018-09-12T02:35:01.910Z,3.87
2018-09-12T02:37:30.108Z,1.80
2018-09-12T02:39:58.331Z,1.83
2018-09-12T02:42:26.579Z,2.77
2018-09-12T02:44:54.817Z,2.00
2018-09-12T02:47:28.569Z,2.33
2018-09-12T02:49:56.775Z,3.20
2018-09-12T02:52:24.934Z,1.90
2018-09-12T02:54:53.103Z,1.90
2018-09-12T02:57:21.276Z,1.87
2018-09-12T02:59:49.831Z,2.57
2018-09-12T03:02:17.999Z,2.53
2018-09-12T03:04:51.847Z,1.90
2018-09-12T03:07:20.031Z,3.17
2018-09-12T03:09:48.279Z,2.50
2018-09-12T03:12:16.528Z,3.13
2018-09-12T03:14:44.683Z,1.90
2018-09-12T03:17:13.644Z,2.17
2018-09-12T03:19:41.818Z,2.30
2018-09-12T03:22:10.097Z,2.60
2018-09-12T03:24:38.343Z,2.70
2018-09-12T03:27:06.514Z,2.50
2018-09-12T03:29:35.077Z,2.80
2018-09-12T03:32:03.244Z,2.00
2018-09-12T03:34:31.448Z,2.90
2018-09-12T03:36:59.600Z,1.60
2018-09-12T03:39:27.759Z,2.17
2018-09-12T03:41:55.997Z,4.47
2018-09-12T03:44:24.127Z,2.27
2018-09-12T03:46:52.315Z,3.10
2018-09-12T03:49:20.527Z,2.47
2018-09-12T03:51:48.708Z,2.33
2018-09-12T03:54:16.895Z,1.87
2018-09-12T03:56:45.126Z,2.47
2018-09-12T03:59:13.397Z,1.80
2018-09-12T04:01:41.558Z,2.60
2018-09-12T04:04:09.779Z,3.00
2018-09-12T04:06:37.960Z,3.30
2018-09-12T04:09:07.734Z,3.13
2018-09-12T04:11:35.979Z,1.53
2018-09-12T04:14:04.136Z,1.87
2018-09-12T04:16:32.320Z,2.37
2018-09-12T04:19:00.556Z,2.30
2018-09-12T04:21:28.712Z,3.37
2018-09-12T04:23:56.915Z,3.30
2018-09-12T04:26:25.104Z,2.97
2018-09-12T04:28:53.288Z,2.63
2018-09-12T04:31:21.502Z,3.17
2018-09-12T04:33:49.669Z,4.03
2018-09-12T04:36:17.852Z,2.37
2018-09-12T04:38:46.015Z,2.80
2018-09-12T04:41:14.170Z,2.80
2018-09-12T04:43:42.368Z,2.90
2018-09-12T04:46:10.562Z,2.30
2018-09-12T04:48:38.798Z,1.67
2018-09-12T04:51:06.963Z,4.47
2018-09-12T04:53:35.110Z,2.30
2018-09-12T04:56:03.296Z,3.23
2018-09-12T04:58:31.515Z,2.10
2018-09-12T05:00:59.755Z,2.00
2018-09-12T05:03:27.982Z,3.70
2018-09-12T05:05:56.225Z,2.63
2018-09-12T05:08:24.420Z,1.60
2018-09-12T05:10:52.729Z,2.13
2018-09-12T05:13:20.900Z,3.43
2018-09-12T05:15:49.103Z,3.10
2018-09-12T05:18:17.326Z,3.17
2018-09-12T05:20:45.510Z,2.20
2018-09-12T05:23:13.711Z,2.53
2018-09-12T05:25:41.933Z,2.17
2018-09-12T05:28:12.751Z,2.67
2018-09-12T05:30:40.971Z,3.60
2018-09-12T05:33:09.183Z,3.00
2018-09-12T05:35:37.400Z,2.43
2018-09-12T05:38:05.635Z,2.23
2018-09-12T05:40:33.866Z,2.23
2018-09-12T05:43:02.041Z,2.73
2018-09-12T05:45:30.267Z,1.70
2018-09-12T05:47:58.476Z,3.17
2018-09-12T05:50:26.685Z,2.83
2018-09-12T05:52:54.903Z,2.47
2018-09-12T05:55:23.103Z,2.10
2018-09-12T05:57:51.311Z,2.00
2018-09-12T06:00:21.629Z,3.07
2018-09-12T06:02:50.313Z,1.80
2018-09-12T06:05:18.505Z,3.20
2018-09-12T06:07:46.668Z,5.67
2018-09-12T06:10:14.870Z,2.83
2018-09-12T06:12:43.113Z,2.37
2018-09-12T06:15:11.312Z,4.17
2018-09-12T06:17:39.472Z,2.17
2018-09-12T06:20:07.964Z,2.60
2018-09-12T06:22:36.403Z,2.60
2018-09-12T06:25:04.594Z,2.57
2018-09-12T06:27:32.885Z,3.67
2018-09-12T06:30:01.089Z,2.03
2018-09-12T06:32:29.375Z,2.67
2018-09-12T06:34:57.576Z,2.73
2018-09-12T06:37:25.748Z,2.47
2018-09-12T06:39:53.958Z,3.70
2018-09-12T06:42:22.171Z,2.10
2018-09-12T06:44:50.364Z,3.00
2018-09-12T06:47:18.557Z,2.83
2018-09-12T06:49:48.659Z,4.73
2018-09-12T06:52:18.093Z,2.20
2018-09-12T06:54:46.324Z,4.83
2018-09-12T06:57:14.490Z,2.10
2018-09-12T06:59:43.379Z,3.60
2018-09-12T07:02:11.619Z,3.13
2018-09-12T07:04:39.814Z,4.10
2018-09-12T07:07:08.059Z,1.90
2018-09-12T07:09:36.260Z,3.10
2018-09-12T07:12:04.540Z,1.70
2018-09-12T07:14:32.742Z,1.83
2018-09-12T07:17:00.948Z,3.73
2018-09-12T07:19:29.156Z,2.60
2018-09-12T07:21:57.399Z,2.40
2018-09-12T07:24:25.612Z,3.43
2018-09-12T07:26:53.800Z,3.17
2018-09-12T07:29:23.647Z,2.00
2018-09-12T07:31:51.843Z,2.50
2018-09-12T07:34:20.066Z,1.87
2018-09-12T07:36:48.329Z,3.90
2018-09-12T07:39:16.525Z,2.33
2018-09-12T07:41:44.759Z,2.50
2018-09-12T07:44:12.872Z,3.60
2018-09-12T07:46:41.049Z,2.90
2018-09-12T07:49:11.156Z,2.87
2018-09-12T07:51:39.288Z,2.47
2018-09-12T07:54:07.498Z,2.77
2018-09-12T07:56:35.688Z,2.10
2018-09-12T07:59:03.944Z,2.00
2018-09-12T08:01:32.137Z,4.27
2018-09-12T08:04:00.374Z,1.63
2018-09-12T08:06:28.606Z,2.87
2018-09-12T08:08:56.825Z,2.10
2018-09-12T08:11:25.008Z,1.30
2018-09-12T08:13:53.293Z,2.90
2018-09-12T08:16:21.483Z,1.83
2018-09-12T08:18:49.694Z,3.03
2018-09-12T08:21:17.859Z,2.27
2018-09-12T08:23:46.061Z,2.23
2018-09-12T08:26:14.248Z,3.93
2018-09-12T08:28:42.769Z,2.30
2018-09-12T08:31:10.949Z,1.87
2018-09-12T08:33:39.153Z,2.80
2018-09-12T08:36:07.370Z,2.27
2018-09-12T08:38:35.601Z,1.83
2018-09-12T08:41:03.772Z,4.27
2018-09-12T08:43:31.929Z,3.00
2018-09-12T08:46:00.103Z,2.53
2018-09-12T08:48:28.284Z,2.00
2018-09-12T08:50:56.474Z,2.77
2018-09-12T08:53:24.659Z,2.10
2018-09-12T08:55:52.863Z,1.83
2018-09-12T08:58:27.724Z,2.57
2018-09-12T09:00:55.916Z,2.93
2018-09-12T09:03:24.076Z,2.93
2018-09-12T09:05:52.337Z,2.00
2018-09-12T09:08:20.505Z,2.67
2018-09-12T09:10:48.668Z,3.17
2018-09-12T09:13:16.839Z,2.80
2018-09-12T09:15:45.016Z,3.03
2018-09-12T09:18:13.213Z,3.07
2018-09-12T09:20:41.424Z,3.30
2018-09-12T09:23:09.604Z,3.37
2018-09-12T09:25:37.821Z,2.10
2018-09-12T09:30:40.631Z,3.67
2018-09-12T09:33:08.805Z,2.97
2018-09-12T09:35:37.083Z,2.57
2018-09-12T09:38:05.609Z,2.17
2018-09-12T09:40:33.833Z,3.73
2018-09-12T09:43:02.061Z,3.17
2018-09-12T09:45:30.274Z,5.60
2018-09-12T09:47:58.475Z,2.43
2018-09-12T09:50:26.675Z,4.23
2018-09-12T09:52:54.852Z,2.97
2018-09-12T09:55:23.088Z,2.47
2018-09-12T09:57:51.270Z,6.00
2018-09-12T10:00:25.061Z,2.03
2018-09-12T10:02:59.008Z,5.03
2018-09-12T10:05:34.275Z,2.23
2018-09-12T10:08:07.855Z,3.27
2018-09-12T10:10:36.043Z,4.03
2018-09-12T10:13:04.341Z,3.27
2018-09-12T10:15:32.592Z,5.80
2018-09-12T10:18:00.773Z,2.30
2018-09-12T10:20:28.919Z,2.40
2018-09-12T10:22:57.082Z,2.87
2018-09-12T10:25:25.283Z,4.77
2018-09-12T10:27:53.440Z,5.33
2018-09-12T10:30:21.606Z,1.93
2018-09-12T10:32:49.775Z,3.57
2018-09-12T10:35:17.935Z,4.07
2018-09-12T10:37:46.175Z,2.37
2018-09-12T10:40:14.408Z,2.00
2018-09-12T10:42:42.592Z,2.07
2018-09-12T10:45:10.769Z,2.43
2018-09-12T10:47:39.018Z,2.77
2018-09-12T10:50:08.083Z,2.90
2018-09-12T10:52:36.249Z,2.47
2018-09-12T10:55:04.439Z,2.80
2018-09-12T10:57:32.676Z,1.93
2018-09-12T11:00:00.884Z,1.50
2018-09-12T11:02:29.088Z,3.57
2018-09-12T11:04:57.243Z,1.40
2018-09-12T11:07:25.469Z,2.67
2018-09-12T11:09:53.717Z,1.90
2018-09-12T11:12:21.826Z,1.73
2018-09-12T11:14:50.005Z,2.10
2018-09-12T11:17:18.266Z,3.63
2018-09-12T11:19:46.513Z,3.73
2018-09-12T11:22:14.735Z,2.63
2018-09-12T11:24:42.959Z,2.07
2018-09-12T11:27:11.419Z,2.03
2018-09-12T11:29:39.580Z,2.83
2018-09-12T11:32:07.747Z,1.93
2018-09-12T11:34:35.928Z,2.73
2018-09-12T11:37:04.107Z,2.33
2018-09-12T11:39:32.301Z,3.03
2018-09-12T11:42:00.479Z,2.83
2018-09-12T11:44:28.667Z,2.10
2018-09-12T11:46:56.868Z,1.93
2018-09-12T11:49:25.059Z,3.73
2018-09-12T11:51:53.292Z,2.87
2018-09-12T11:54:21.561Z,1.70
2018-09-12T11:56:49.718Z,2.73
2018-09-12T11:59:18.159Z,2.90
2018-09-12T12:01:46.329Z,2.30
2018-09-12T12:04:14.516Z,2.77
2018-09-12T12:06:42.734Z,3.00
2018-09-12T12:09:11.363Z,5.10
2018-09-12T12:11:40.164Z,3.40
2018-09-12T12:14:08.352Z,3.00
2018-09-12T12:16:36.592Z,2.83
2018-09-12T12:19:04.806Z,2.60
2018-09-12T12:21:33.020Z,2.10
2018-09-12T12:24:01.421Z,2.03
2018-09-12T12:26:29.617Z,3.10
2018-09-12T12:28:57.808Z,1.80
2018-09-12T12:31:25.986Z,3.57
2018-09-12T12:33:54.138Z,3.23
2018-09-12T12:36:22.364Z,3.27
2018-09-12T12:38:50.504Z,2.40
2018-09-12T12:41:18.776Z,4.13
2018-09-12T12:43:46.916Z,4.57
2018-09-12T12:46:15.116Z,2.60
2018-09-12T12:48:43.295Z,2.60
2018-09-12T12:51:11.454Z,3.30
2018-09-12T12:53:39.651Z,2.07
2018-09-12T12:56:07.909Z,1.97
2018-09-12T12:58:36.110Z,2.17
2018-09-12T13:01:04.296Z,3.27
2018-09-12T13:03:32.504Z,2.20
2018-09-12T13:06:00.706Z,3.60
2018-09-12T13:08:28.912Z,2.70
2018-09-12T13:10:57.095Z,4.00
2018-09-12T13:13:25.295Z,2.93
2018-09-12T13:15:53.491Z,1.93
2018-09-12T13:18:21.727Z,2.60
2018-09-12T13:20:49.908Z,2.57
2018-09-12T13:23:18.091Z,2.03
2018-09-12T13:25:46.326Z,3.83
2018-09-12T13:28:15.521Z,2.67
2018-09-12T13:30:43.726Z,1.90
2018-09-12T13:33:11.912Z,2.23
2018-09-12T13:35:40.097Z,2.67
2018-09-12T13:38:08.274Z,2.30
2018-09-12T13:40:36.471Z,2.97
2018-09-12T13:43:04.747Z,1.90
2018-09-12T13:45:39.707Z,2.93
2018-09-12T13:48:07.914Z,4.07
2018-09-12T13:50:36.073Z,2.07
2018-09-12T13:53:04.314Z,4.33
2018-09-12T13:55:32.537Z,2.23
2018-09-12T13:58:00.751Z,1.70
2018-09-12T14:00:31.678Z,2.30
2018-09-12T14:03:01.509Z,2.57
2018-09-12T14:05:29.954Z,3.47
2018-09-12T14:07:58.227Z,2.00
2018-09-12T14:10:26.379Z,3.10
2018-09-12T14:12:54.571Z,3.03
2018-09-12T14:15:22.771Z,2.90
2018-09-12T14:17:51.151Z,2.83
2018-09-12T14:20:19.336Z,2.10
2018-09-12T14:22:47.540Z,2.27
2018-09-12T14:25:15.743Z,2.67
2018-09-12T14:27:43.996Z,4.33
2018-09-12T14:30:12.203Z,5.57
2018-09-12T14:32:40.409Z,1.93
2018-09-12T14:35:08.585Z,1.57
2018-09-12T14:37:37.182Z,3.50
2018-09-12T14:40:05.425Z,2.87
2018-09-12T14:42:33.823Z,4.33
2018-09-12T14:45:02.059Z,3.33
2018-09-12T14:47:30.216Z,3.67
2018-09-12T14:49:58.387Z,3.10
2018-09-12T14:52:26.549Z,3.33
2018-09-12T14:54:54.742Z,3.60
2018-09-12T14:57:22.887Z,3.57
2018-09-12T14:59:51.772Z,3.63
2018-09-12T15:02:20.033Z,3.57
2018-09-12T15:04:48.262Z,2.83
2018-09-12T15:07:16.467Z,3.53
2018-09-12T15:09:44.752Z,3.37
2018-09-12T15:12:12.937Z,3.50
2018-09-12T15:14:41.085Z,5.13
2018-09-12T15:17:09.306Z,3.30
2018-09-12T15:19:37.470Z,5.27
2018-09-12T15:22:05.648Z,3.77
2018-09-12T15:24:34.099Z,4.00
2018-09-12T15:27:02.306Z,4.37
2018-09-12T15:29:31.575Z,4.33
2018-09-12T15:31:59.724Z,3.40
2018-09-12T15:34:27.950Z,3.63
2018-09-12T15:36:56.104Z,4.20
2018-09-12T15:39:24.257Z,5.53
2018-09-12T15:41:52.447Z,3.90
2018-09-12T15:44:20.595Z,4.20
2018-09-12T15:46:48.793Z,3.33
2018-09-12T15:49:16.995Z,6.20
2018-09-12T15:51:45.268Z,4.73
2018-09-12T15:54:13.485Z,4.10
2018-09-12T15:56:41.640Z,4.17
2018-09-12T15:59:09.805Z,3.80
2018-09-12T16:01:38.025Z,5.33
2018-09-12T16:04:06.248Z,5.40
2018-09-12T16:06:34.396Z,4.23
2018-09-12T16:09:03.111Z,4.43
2018-09-12T16:11:31.269Z,3.90
2018-09-12T16:13:59.417Z,4.10
2018-09-12T16:16:27.607Z,4.87
2018-09-12T16:18:55.796Z,5.60
2018-09-12T16:21:24.054Z,4.47
2018-09-12T16:23:52.254Z,4.80
2018-09-12T16:26:20.445Z,3.97
2018-09-12T16:28:48.632Z,4.37
2018-09-12T16:31:16.800Z,4.77
2018-09-12T16:33:45.017Z,6.37
2018-09-12T16:36:13.204Z,4.33
2018-09-12T16:38:41.431Z,4.70
2018-09-12T16:41:09.600Z,4.40
2018-09-12T16:43:37.837Z,5.27
2018-09-12T16:46:06.018Z,4.23
2018-09-12T16:48:34.204Z,4.20
2018-09-12T16:51:02.399Z,5.90
2018-09-12T16:53:30.577Z,4.60
2018-09-12T16:55:58.741Z,4.50
2018-09-12T16:58:26.949Z,4.53
2018-09-12T17:00:55.168Z,4.77
2018-09-12T17:03:23.313Z,3.67
2018-09-12T17:05:51.601Z,4.30
2018-09-12T17:08:19.788Z,4.50
2018-09-12T17:10:47.975Z,5.20
2018-09-12T17:13:16.201Z,5.50
2018-09-12T17:15:44.382Z,8.40
2018-09-12T17:18:12.563Z,4.73
2018-09-12T17:20:41.559Z,4.53
2018-09-12T17:23:09.780Z,4.30
2018-09-12T17:25:38.308Z,4.77
2018-09-12T17:28:06.579Z,5.40
2018-09-12T17:30:34.768Z,6.10
2018-09-12T17:33:02.944Z,5.80
2018-09-12T17:35:31.136Z,5.00
2018-09-12T17:37:59.327Z,5.40
2018-09-12T17:40:27.542Z,5.10
2018-09-12T17:42:55.761Z,4.63
2018-09-12T17:52:22.795Z,6.17
2018-09-12T17:54:50.943Z,6.50
2018-09-12T17:57:19.212Z,4.67
2018-09-12T17:59:47.577Z,5.43
2018-09-12T18:02:15.805Z,5.80
2018-09-12T18:04:44.012Z,8.30
2018-09-12T18:07:12.251Z,5.50
2018-09-12T18:09:40.428Z,4.90
2018-09-12T18:12:08.669Z,6.57
2018-09-12T18:14:36.863Z,4.53
2018-09-12T18:17:05.215Z,5.77
2018-09-12T18:19:33.426Z,5.20
2018-09-12T18:22:01.631Z,4.33
2018-09-12T18:24:31.241Z,4.60
2018-09-12T18:26:59.368Z,4.67
2018-09-12T18:29:28.954Z,4.43
2018-09-12T18:31:57.236Z,4.40
2018-09-12T18:34:25.464Z,5.53
2018-09-12T18:36:53.709Z,5.60
2018-09-12T18:39:21.906Z,5.40
2018-09-12T18:41:50.148Z,4.77
2018-09-12T18:44:18.386Z,5.53
2018-09-12T18:46:46.590Z,4.23
2018-09-12T18:49:14.764Z,6.67
2018-09-12T18:51:42.955Z,3.83
2018-09-12T18:54:11.163Z,5.17
2018-09-12T18:56:39.392Z,3.63
2018-09-12T18:59:07.631Z,4.50
2018-09-12T19:01:35.856Z,5.37
2018-09-12T19:04:04.019Z,5.80
2018-09-12T19:06:32.229Z,6.70
2018-09-12T19:09:00.319Z,9.03
2018-09-12T19:11:28.532Z,7.73
2018-09-12T19:13:56.707Z,9.30
2018-09-12T19:16:24.965Z,7.20
2018-09-12T19:18:53.169Z,7.90
2018-09-12T19:21:21.334Z,8.17
2018-09-12T19:23:49.499Z,8.37
2018-09-12T19:26:17.706Z,6.07
2018-09-12T19:28:45.888Z,7.37
2018-09-12T19:31:14.120Z,9.80
2018-09-12T19:33:42.293Z,7.57
2018-09-12T19:36:10.536Z,9.60
2018-09-12T19:38:38.622Z,7.63
2018-09-12T19:41:07.050Z,9.73
2018-09-12T19:43:35.265Z,8.80
2018-09-12T19:46:03.485Z,10.13
2018-09-12T19:48:31.692Z,9.67
2018-09-12T19:50:59.921Z,8.37
2018-09-12T19:53:28.138Z,11.30
2018-09-12T19:55:56.320Z,9.53
2018-09-12T19:58:24.638Z,9.40
2018-09-12T20:00:52.839Z,10.47
2018-09-12T20:03:21.041Z,9.67
2018-09-12T20:05:49.308Z,10.40
2018-09-12T20:08:17.497Z,7.80
2018-09-12T20:10:45.673Z,10.23
2018-09-12T20:13:13.827Z,7.83
2018-09-12T20:15:42.028Z,6.33
2018-09-12T20:18:10.196Z,7.53
2018-09-12T20:20:38.383Z,8.07
2018-09-12T20:23:06.560Z,8.13
2018-09-12T20:25:34.728Z,8.40
2018-09-12T20:28:02.947Z,8.00
2018-09-12T20:30:31.200Z,8.80
2018-09-12T20:32:59.400Z,8.07
2018-09-12T20:35:27.661Z,7.13
2018-09-12T20:37:55.770Z,7.80
2018-09-12T20:40:24.010Z,8.00
2018-09-12T20:42:52.197Z,5.80
2018-09-12T20:45:20.413Z,5.23
2018-09-12T20:47:48.647Z,7.17
2018-09-12T20:50:16.830Z,6.43
2018-09-12T20:52:45.020Z,6.07
2018-09-12T20:55:13.267Z,5.80
2018-09-12T20:57:41.595Z,5.97
2018-09-12T21:00:09.806Z,6.40
2018-09-12T21:02:38.045Z,4.90
2018-09-12T21:05:06.228Z,6.67
2018-09-12T21:07:34.381Z,7.30
2018-09-12T21:10:02.575Z,4.43
2018-09-12T21:12:30.808Z,5.63
2018-09-12T21:14:58.992Z,5.43
2018-09-12T21:17:27.131Z,5.87
2018-09-12T21:19:55.368Z,6.13
2018-09-12T21:22:23.585Z,5.10
2018-09-12T21:24:51.740Z,6.63
2018-09-12T21:27:19.932Z,6.53
2018-09-12T21:29:48.258Z,7.30
2018-09-12T21:32:16.479Z,5.13
2018-09-12T21:34:44.621Z,5.43
2018-09-12T21:37:12.855Z,6.07
2018-09-12T21:39:41.051Z,5.97
2018-09-12T21:42:09.234Z,5.33
2018-09-12T21:44:37.424Z,4.47
2018-09-12T21:47:05.647Z,5.73
2018-09-12T21:49:33.838Z,5.37
2018-09-12T21:52:02.077Z,4.87
2018-09-12T21:54:30.381Z,6.00
2018-09-12T21:56:58.560Z,6.40
2018-09-12T21:59:27.405Z,5.67
2018-09-12T22:01:56.887Z,4.90
2018-09-12T22:04:25.072Z,5.37
2018-09-12T22:06:53.244Z,4.60
2018-09-12T22:09:21.417Z,5.97
2018-09-12T22:11:49.545Z,4.87
2018-09-12T22:14:17.766Z,6.10
2018-09-12T22:16:45.949Z,5.20
2018-09-12T22:19:14.208Z,5.57
2018-09-12T22:21:42.416Z,5.87
2018-09-12T22:24:10.596Z,6.63
2018-09-12T22:26:45.512Z,5.67
2018-09-12T22:29:13.971Z,5.67
2018-09-12T22:31:42.167Z,5.67
2018-09-12T22:34:10.371Z,7.13
2018-09-12T22:36:38.605Z,5.90
2018-09-12T22:39:08.628Z,7.10
2018-09-12T22:41:36.793Z,5.80
2018-09-12T22:44:05.695Z,10.73
2018-09-12T22:46:34.215Z,5.87
2018-09-12T22:49:02.378Z,5.70
2018-09-12T22:51:30.599Z,5.83
2018-09-12T22:53:58.784Z,5.60
2018-09-12T22:56:27.734Z,5.30
2018-09-12T22:58:55.964Z,5.03
2018-09-12T23:01:24.231Z,4.93
2018-09-12T23:03:52.396Z,5.90
2018-09-12T23:06:20.592Z,5.47
2018-09-12T23:08:48.803Z,5.63
2018-09-12T23:11:17.016Z,5.23
2018-09-12T23:13:45.304Z,5.33
2018-09-12T23:16:13.489Z,8.10
2018-09-12T23:18:41.728Z,4.50
2018-09-12T23:21:09.971Z,6.40
2018-09-12T23:23:38.181Z,5.63
2018-09-12T23:26:06.431Z,5.87
2018-09-12T23:28:34.646Z,6.17
2018-09-12T23:31:02.806Z,6.00
2018-09-12T23:33:30.986Z,6.33
2018-09-12T23:35:59.166Z,8.27
2018-09-12T23:38:27.367Z,5.23
2018-09-12T23:40:55.518Z,5.67
2018-09-12T23:43:23.757Z,7.53
2018-09-12T23:45:51.997Z,5.00
2018-09-12T23:48:20.168Z,6.00
2018-09-12T23:50:48.397Z,5.57
2018-09-12T23:53:16.557Z,4.67
2018-09-12T23:55:44.763Z,4.93
2018-09-12T23:58:12.929Z,4.63
